Disclaimer

Please do not use the information listed here in-flight or in-navigation, as they are not provided to us by the airports but are provided by volunteers, so they might be outdated.

Search


Regions


Airport information page

Radio informations:
Tower (TWR) - 118.3 MHz
Automatic Terminal Information Service (ATIS) - 128.65 MHz
Approach (APP) - 120.9 MHz

Airport informations:
Latitude: 48° 10' 12.60" N
Longitude: 017° 12' 45.60" E
Elevation: 436 feet - 133 meters
Operating hours: 24 hour operations
Operating agency: Civil government, landing fees and diplomatic clearance may be required
Timezone: UTC+1(+2DT)
Fuel: Jet A1+, Jet A1 with icing inhibitor.

Runway information:
04/22 - 9515 x 197 feet< - >2900 x 60 meters
13/31 - 10466 x 148 feet< - >3190 x 45 meters

Recent METARs:
LZIB 192100Z 07007KT 9999 FEW013 BKN019 03/01 Q1018
LZIB 192130Z 07007KT 9999 FEW013 BKN018 03/01 Q1018
LZIB 192200Z 07006KT 9999 FEW013 BKN018 03/01 Q1018

Airport on the map: